UNS100 KEWR-CYHZ
Flight info
| Callsign | UNS100 |
|---|---|
| Flight time | 1h 11m |
| Altitude | 35000 |
| Route | MERIT DCT HFD DCT PUT DCT ENE Q822 ALLEX DCT MUVOX FUNDY5 |
| Aircraft | B720/M-SDFHIRWY/C |
Departure
| Time | 2026-05-08 01:34 |
|---|---|
| Airport | Newark Liberty International Airport (KEWR) |
Arrival
| Time | 2026-05-08 02:46 |
|---|---|
| Airport | Halifax / Stanfield International Airport (CYHZ) |
| Time | Latitude | Longitude | Altitude | Speed | Heading |
|---|---|---|---|---|---|
| 2026-05-08 00:46 | 40.70558 | -74.17047 | 16 ft | 0 kts | 95° |
| 2026-05-08 01:23 | 40.70558 | -74.17046 | 16 ft | 1 kts | 94° |
| 2026-05-08 01:23 | 40.70557 | -74.16988 | 16 ft | 9 kts | 92° |
| 2026-05-08 01:24 | 40.70542 | -74.16893 | 16 ft | 10 kts | 122° |
| 2026-05-08 01:24 | 40.70493 | -74.16841 | 16 ft | 6 kts | 146° |
| 2026-05-08 01:24 | 40.70474 | -74.16825 | 16 ft | 3 kts | 150° |
| 2026-05-08 01:24 | 40.70422 | -74.16808 | 16 ft | 10 kts | 179° |
| 2026-05-08 01:25 | 40.70346 | -74.16808 | 16 ft | 11 kts | 178° |
| 2026-05-08 01:25 | 40.70305 | -74.16738 | 16 ft | 11 kts | 95° |
| 2026-05-08 01:25 | 40.70298 | -74.16631 | 16 ft | 12 kts | 95° |
| 2026-05-08 01:25 | 40.70289 | -74.16518 | 16 ft | 12 kts | 95° |
| 2026-05-08 01:26 | 40.70274 | -74.16468 | 16 ft | 0 kts | 168° |
| 2026-05-08 01:26 | 40.70252 | -74.16466 | 16 ft | 10 kts | 182° |
| 2026-05-08 01:26 | 40.70171 | -74.16472 | 16 ft | 14 kts | 185° |
| 2026-05-08 01:26 | 40.70067 | -74.16500 | 16 ft | 15 kts | 205° |
| 2026-05-08 01:27 | 40.69967 | -74.16565 | 16 ft | 16 kts | 206° |
| 2026-05-08 01:27 | 40.69861 | -74.16635 | 16 ft | 17 kts | 206° |
| 2026-05-08 01:27 | 40.69751 | -74.16706 | 16 ft | 18 kts | 205° |
| 2026-05-08 01:27 | 40.69635 | -74.16779 | 16 ft | 18 kts | 206° |
| 2026-05-08 01:28 | 40.69518 | -74.16853 | 16 ft | 19 kts | 206° |
| 2026-05-08 01:28 | 40.69396 | -74.16932 | 16 ft | 19 kts | 206° |
| 2026-05-08 01:28 | 40.69272 | -74.17009 | 16 ft | 20 kts | 205° |
| 2026-05-08 01:28 | 40.69144 | -74.17090 | 16 ft | 20 kts | 206° |
| 2026-05-08 01:29 | 40.69014 | -74.17173 | 16 ft | 21 kts | 206° |
| 2026-05-08 01:29 | 40.68882 | -74.17258 | 16 ft | 21 kts | 206° |
| 2026-05-08 01:29 | 40.68745 | -74.17345 | 16 ft | 21 kts | 205° |
| 2026-05-08 01:29 | 40.68608 | -74.17431 | 16 ft | 22 kts | 207° |
| 2026-05-08 01:30 | 40.68467 | -74.17518 | 16 ft | 22 kts | 206° |
| 2026-05-08 01:30 | 40.68325 | -74.17609 | 16 ft | 22 kts | 206° |
| 2026-05-08 01:30 | 40.68180 | -74.17700 | 16 ft | 23 kts | 206° |
| 2026-05-08 01:30 | 40.68041 | -74.17790 | 16 ft | 17 kts | 207° |
| 2026-05-08 01:31 | 40.67929 | -74.17864 | 16 ft | 18 kts | 206° |
| 2026-05-08 01:31 | 40.67812 | -74.17934 | 16 ft | 18 kts | 204° |
| 2026-05-08 01:31 | 40.67693 | -74.18010 | 16 ft | 17 kts | 204° |
| 2026-05-08 01:31 | 40.67621 | -74.18048 | 16 ft | 8 kts | 175° |
| 2026-05-08 01:32 | 40.67608 | -74.18044 | 16 ft | 0 kts | 157° |
| 2026-05-08 01:32 | 40.67602 | -74.18040 | 16 ft | 5 kts | 150° |
| 2026-05-08 01:32 | 40.67566 | -74.17974 | 16 ft | 11 kts | 113° |
| 2026-05-08 01:33 | 40.67589 | -74.17917 | 16 ft | 4 kts | 25° |
| 2026-05-08 01:33 | 40.67592 | -74.17915 | 16 ft | 0 kts | 25° |
| 2026-05-08 01:33 | 40.67594 | -74.17914 | 16 ft | 6 kts | 24° |
| 2026-05-08 01:33 | 40.67954 | -74.17689 | 17 ft | 104 kts | 26° |
| 2026-05-08 01:34 | 40.68832 | -74.17118 | 93 ft | 169 kts | 27° |
| 2026-05-08 01:34 | 40.69981 | -74.16341 | 529 ft | 202 kts | 26° |
| 2026-05-08 01:34 | 40.71255 | -74.15452 | 759 ft | 197 kts | 29° |
| 2026-05-08 01:34 | 40.72317 | -74.14313 | 915 ft | 201 kts | 43° |
| 2026-05-08 01:35 | 40.73336 | -74.12989 | 1078 ft | 205 kts | 43° |
| 2026-05-08 01:35 | 40.74365 | -74.11688 | 1292 ft | 204 kts | 39° |
| 2026-05-08 01:35 | 40.75582 | -74.10709 | 1535 ft | 207 kts | 27° |
| 2026-05-08 01:35 | 40.76829 | -74.09772 | 1703 ft | 204 kts | 27° |
| 2026-05-08 01:36 | 40.78055 | -74.08841 | 2065 ft | 206 kts | 27° |
| 2026-05-08 01:36 | 40.79350 | -74.07855 | 2740 ft | 238 kts | 27° |
| 2026-05-08 01:36 | 40.80843 | -74.06722 | 3554 ft | 259 kts | 27° |
| 2026-05-08 01:36 | 40.82422 | -74.05521 | 4373 ft | 268 kts | 27° |
| 2026-05-08 01:37 | 40.84022 | -74.04313 | 5191 ft | 268 kts | 28° |
| 2026-05-08 01:37 | 40.85392 | -74.02586 | 5983 ft | 282 kts | 61° |
| 2026-05-08 01:37 | 40.85987 | -74.00073 | 6819 ft | 288 kts | 76° |
| 2026-05-08 01:37 | 40.86452 | -73.97485 | 7668 ft | 297 kts | 76° |
| 2026-05-08 01:38 | 40.86901 | -73.94823 | 8532 ft | 304 kts | 76° |
| 2026-05-08 01:38 | 40.87341 | -73.92089 | 9416 ft | 311 kts | 76° |
| 2026-05-08 01:38 | 40.87766 | -73.89357 | 10290 ft | 317 kts | 76° |
| 2026-05-08 01:38 | 40.88221 | -73.86475 | 11196 ft | 326 kts | 76° |
| 2026-05-08 01:39 | 40.88704 | -73.83498 | 12023 ft | 334 kts | 76° |
| 2026-05-08 01:39 | 40.89477 | -73.80595 | 12732 ft | 339 kts | 55° |
| 2026-05-08 01:39 | 40.90828 | -73.78063 | 13459 ft | 342 kts | 48° |
| 2026-05-08 01:39 | 40.92289 | -73.75545 | 14191 ft | 350 kts | 48° |
| 2026-05-08 01:40 | 40.93776 | -73.73008 | 14947 ft | 358 kts | 48° |
| 2026-05-08 01:40 | 40.95319 | -73.70418 | 15703 ft | 365 kts | 48° |
| 2026-05-08 01:40 | 40.96924 | -73.67760 | 16474 ft | 374 kts | 48° |
| 2026-05-08 01:40 | 40.98609 | -73.65021 | 17297 ft | 398 kts | 48° |
| 2026-05-08 01:41 | 41.00398 | -73.62128 | 18236 ft | 422 kts | 49° |
| 2026-05-08 01:41 | 41.02305 | -73.59048 | 19276 ft | 440 kts | 49° |
| 2026-05-08 01:41 | 41.04263 | -73.55881 | 20375 ft | 453 kts | 48° |
| 2026-05-08 01:41 | 41.06249 | -73.52670 | 21509 ft | 463 kts | 48° |
| 2026-05-08 01:42 | 41.08302 | -73.49350 | 22676 ft | 472 kts | 47° |
| 2026-05-08 01:42 | 41.10386 | -73.45976 | 23869 ft | 478 kts | 47° |
| 2026-05-08 01:42 | 41.12592 | -73.42648 | 25057 ft | 480 kts | 41° |
| 2026-05-08 01:42 | 41.14868 | -73.39451 | 26252 ft | 484 kts | 41° |
| 2026-05-08 01:43 | 41.17176 | -73.36173 | 27472 ft | 488 kts | 41° |
| 2026-05-08 01:43 | 41.19500 | -73.32856 | 28672 ft | 491 kts | 42° |
| 2026-05-08 01:43 | 41.21819 | -73.29507 | 29848 ft | 494 kts | 42° |
| 2026-05-08 01:43 | 41.24048 | -73.26268 | 30900 ft | 497 kts | 42° |
| 2026-05-08 01:44 | 41.26109 | -73.23273 | 31841 ft | 498 kts | 42° |
| 2026-05-08 01:44 | 41.28451 | -73.19875 | 32892 ft | 499 kts | 42° |
| 2026-05-08 01:44 | 41.30764 | -73.16522 | 33871 ft | 498 kts | 42° |
| 2026-05-08 01:44 | 41.33101 | -73.13153 | 34741 ft | 497 kts | 42° |
| 2026-05-08 01:45 | 41.35431 | -73.09772 | 35508 ft | 496 kts | 46° |
| 2026-05-08 01:45 | 41.37426 | -73.06017 | 36263 ft | 502 kts | 54° |
| 2026-05-08 01:45 | 41.39433 | -73.02051 | 35904 ft | 534 kts | 53° |
| 2026-05-08 01:45 | 41.41589 | -72.97873 | 35938 ft | 557 kts | 52° |
| 2026-05-08 01:46 | 41.43831 | -72.93580 | 35911 ft | 578 kts | 52° |
| 2026-05-08 01:46 | 41.46165 | -72.89143 | 35934 ft | 597 kts | 52° |
| 2026-05-08 01:46 | 41.48588 | -72.84554 | 35908 ft | 612 kts | 52° |
| 2026-05-08 01:47 | 41.53522 | -72.75223 | 35915 ft | 619 kts | 52° |
| 2026-05-08 01:47 | 41.58469 | -72.65861 | 35919 ft | 619 kts | 52° |
| 2026-05-08 01:48 | 41.65750 | -72.51643 | 35922 ft | 622 kts | 57° |
| 2026-05-08 01:48 | 41.70221 | -72.41698 | 35961 ft | 620 kts | 57° |
| 2026-05-08 01:49 | 41.72406 | -72.36832 | 36090 ft | 617 kts | 57° |
| 2026-05-08 01:49 | 41.74643 | -72.31839 | 36004 ft | 620 kts | 58° |
| 2026-05-08 01:49 | 41.76850 | -72.26904 | 35752 ft | 617 kts | 58° |
| 2026-05-08 01:49 | 41.79013 | -72.22052 | 35506 ft | 613 kts | 58° |
| 2026-05-08 01:50 | 41.81217 | -72.17107 | 35258 ft | 612 kts | 58° |
| 2026-05-08 01:50 | 41.83385 | -72.12238 | 35029 ft | 609 kts | 58° |
| 2026-05-08 01:50 | 41.87663 | -72.02602 | 35005 ft | 608 kts | 58° |
| 2026-05-08 01:51 | 41.91909 | -71.93002 | 34975 ft | 582 kts | 58° |
| 2026-05-08 01:51 | 41.94098 | -71.88457 | 34866 ft | 577 kts | 49° |
| 2026-05-08 01:51 | 41.96811 | -71.84518 | 34893 ft | 575 kts | 38° |
| 2026-05-08 01:52 | 42.03240 | -71.78391 | 34893 ft | 570 kts | 27° |
| 2026-05-08 01:52 | 42.09972 | -71.72676 | 34890 ft | 570 kts | 26° |
| 2026-05-08 01:53 | 42.16679 | -71.67107 | 34882 ft | 570 kts | 26° |
| 2026-05-08 01:53 | 42.23425 | -71.61539 | 34883 ft | 571 kts | 26° |
| 2026-05-08 01:54 | 42.30230 | -71.55927 | 34885 ft | 571 kts | 26° |
| 2026-05-08 01:54 | 42.36984 | -71.50345 | 34879 ft | 569 kts | 25° |
| 2026-05-08 01:55 | 42.43731 | -71.44765 | 34876 ft | 572 kts | 26° |
| 2026-05-08 01:55 | 42.50485 | -71.39159 | 34877 ft | 570 kts | 25° |
| 2026-05-08 01:56 | 42.57273 | -71.33518 | 34863 ft | 573 kts | 26° |
| 2026-05-08 01:56 | 42.64054 | -71.27864 | 34860 ft | 572 kts | 27° |
| 2026-05-08 01:57 | 42.70825 | -71.22203 | 34860 ft | 572 kts | 27° |
| 2026-05-08 01:57 | 42.77616 | -71.16512 | 34857 ft | 572 kts | 27° |
| 2026-05-08 01:58 | 42.84343 | -71.10860 | 34859 ft | 572 kts | 27° |
| 2026-05-08 01:58 | 42.91132 | -71.05138 | 34853 ft | 573 kts | 27° |
| 2026-05-08 01:59 | 42.97908 | -70.99417 | 34851 ft | 572 kts | 27° |
| 2026-05-08 01:59 | 43.04675 | -70.93684 | 34848 ft | 572 kts | 27° |
| 2026-05-08 02:00 | 43.11403 | -70.87972 | 34834 ft | 573 kts | 27° |
| 2026-05-08 02:00 | 43.18171 | -70.82211 | 34838 ft | 573 kts | 27° |
| 2026-05-08 02:01 | 43.24943 | -70.76430 | 34834 ft | 575 kts | 27° |
| 2026-05-08 02:01 | 43.31708 | -70.70639 | 34840 ft | 574 kts | 27° |
| 2026-05-08 02:02 | 43.38366 | -70.64624 | 34834 ft | 580 kts | 37° |
| 2026-05-08 02:02 | 43.41257 | -70.60693 | 34847 ft | 585 kts | 49° |
| 2026-05-08 02:02 | 43.43612 | -70.56137 | 34845 ft | 587 kts | 59° |
| 2026-05-08 02:03 | 43.47084 | -70.46036 | 34837 ft | 587 kts | 67° |
| 2026-05-08 02:03 | 43.50244 | -70.35764 | 34839 ft | 586 kts | 68° |
| 2026-05-08 02:04 | 43.53332 | -70.25359 | 34824 ft | 586 kts | 70° |
| 2026-05-08 02:04 | 43.56363 | -70.14988 | 34829 ft | 585 kts | 70° |
| 2026-05-08 02:05 | 43.59381 | -70.04575 | 34825 ft | 586 kts | 70° |
| 2026-05-08 02:05 | 43.62387 | -69.94151 | 34818 ft | 586 kts | 70° |
| 2026-05-08 02:06 | 43.65372 | -69.83747 | 34825 ft | 585 kts | 70° |
| 2026-05-08 02:06 | 43.68352 | -69.73317 | 34826 ft | 585 kts | 70° |
| 2026-05-08 02:07 | 43.71307 | -69.62932 | 34830 ft | 586 kts | 70° |
| 2026-05-08 02:07 | 43.74278 | -69.52445 | 34828 ft | 586 kts | 70° |
| 2026-05-08 02:08 | 43.77231 | -69.41984 | 34830 ft | 586 kts | 71° |
| 2026-05-08 02:08 | 43.80128 | -69.31670 | 34819 ft | 586 kts | 71° |
| 2026-05-08 02:09 | 43.83046 | -69.21230 | 34814 ft | 586 kts | 71° |
| 2026-05-08 02:09 | 43.85982 | -69.10693 | 34813 ft | 585 kts | 71° |
| 2026-05-08 02:10 | 43.88879 | -69.00250 | 34805 ft | 586 kts | 71° |
| 2026-05-08 02:10 | 43.91793 | -68.89700 | 34815 ft | 585 kts | 71° |
| 2026-05-08 02:11 | 43.94683 | -68.79193 | 34826 ft | 585 kts | 71° |
| 2026-05-08 02:11 | 43.97557 | -68.68695 | 34816 ft | 586 kts | 71° |
| 2026-05-08 02:12 | 44.00422 | -68.58189 | 34822 ft | 585 kts | 72° |
| 2026-05-08 02:12 | 44.03305 | -68.47575 | 34812 ft | 584 kts | 72° |
| 2026-05-08 02:13 | 44.06148 | -68.37052 | 34814 ft | 586 kts | 72° |
| 2026-05-08 02:13 | 44.08980 | -68.26537 | 34753 ft | 583 kts | 72° |
| 2026-05-08 02:14 | 44.11823 | -68.15923 | 34751 ft | 585 kts | 72° |
| 2026-05-08 02:14 | 44.14646 | -68.05333 | 34800 ft | 584 kts | 73° |
| 2026-05-08 02:15 | 44.17461 | -67.94736 | 34796 ft | 583 kts | 73° |
| 2026-05-08 02:15 | 44.20255 | -67.84174 | 34801 ft | 585 kts | 73° |
| 2026-05-08 02:16 | 44.23048 | -67.73565 | 34800 ft | 586 kts | 73° |
| 2026-05-08 02:16 | 44.25854 | -67.62862 | 34793 ft | 587 kts | 73° |
| 2026-05-08 02:17 | 44.28634 | -67.52194 | 34794 ft | 589 kts | 73° |
| 2026-05-08 02:17 | 44.31402 | -67.41537 | 34795 ft | 587 kts | 73° |
| 2026-05-08 02:18 | 44.34161 | -67.30866 | 34790 ft | 588 kts | 75° |
| 2026-05-08 02:18 | 44.36902 | -67.20216 | 34768 ft | 587 kts | 75° |
| 2026-05-08 02:19 | 44.39656 | -67.09473 | 34771 ft | 584 kts | 75° |
| 2026-05-08 02:19 | 44.42184 | -66.98727 | 34771 ft | 581 kts | 82° |
| 2026-05-08 02:20 | 44.44149 | -66.87868 | 34778 ft | 582 kts | 82° |
| 2026-05-08 02:20 | 44.46071 | -66.76921 | 34786 ft | 584 kts | 82° |
| 2026-05-08 02:21 | 44.47957 | -66.65994 | 34778 ft | 582 kts | 82° |
| 2026-05-08 02:21 | 44.49838 | -66.54975 | 34776 ft | 581 kts | 82° |
| 2026-05-08 02:22 | 44.51695 | -66.44009 | 34775 ft | 585 kts | 83° |
| 2026-05-08 02:22 | 44.53553 | -66.32964 | 34767 ft | 579 kts | 84° |
| 2026-05-08 02:23 | 44.55392 | -66.21932 | 34764 ft | 582 kts | 84° |
| 2026-05-08 02:23 | 44.57216 | -66.10966 | 34766 ft | 579 kts | 84° |
| 2026-05-08 02:24 | 44.59026 | -65.99970 | 34760 ft | 585 kts | 84° |
| 2026-05-08 02:24 | 44.60832 | -65.88966 | 34753 ft | 579 kts | 84° |
| 2026-05-08 02:25 | 44.62633 | -65.77889 | 34762 ft | 584 kts | 85° |
| 2026-05-08 02:25 | 44.64419 | -65.66818 | 34761 ft | 587 kts | 85° |
| 2026-05-08 02:26 | 44.66197 | -65.55796 | 34765 ft | 579 kts | 85° |
| 2026-05-08 02:26 | 44.67960 | -65.44751 | 34766 ft | 579 kts | 85° |
| 2026-05-08 02:27 | 44.69706 | -65.33736 | 34768 ft | 580 kts | 86° |
| 2026-05-08 02:27 | 44.71444 | -65.22665 | 34757 ft | 586 kts | 86° |
| 2026-05-08 02:28 | 44.72312 | -65.17134 | 34433 ft | 579 kts | 87° |
| 2026-05-08 02:28 | 44.73166 | -65.11708 | 34009 ft | 568 kts | 88° |
| 2026-05-08 02:28 | 44.74005 | -65.06324 | 33570 ft | 559 kts | 88° |
| 2026-05-08 02:28 | 44.74832 | -65.00989 | 33109 ft | 556 kts | 88° |
| 2026-05-08 02:29 | 44.75640 | -64.95752 | 32652 ft | 556 kts | 88° |
| 2026-05-08 02:29 | 44.76466 | -64.90398 | 32200 ft | 555 kts | 89° |
| 2026-05-08 02:29 | 44.77267 | -64.85143 | 31743 ft | 555 kts | 88° |
| 2026-05-08 02:29 | 44.78080 | -64.79878 | 31299 ft | 545 kts | 89° |
| 2026-05-08 02:30 | 44.78867 | -64.74716 | 30854 ft | 542 kts | 89° |
| 2026-05-08 02:30 | 44.79644 | -64.69585 | 30413 ft | 538 kts | 89° |
| 2026-05-08 02:30 | 44.80423 | -64.64450 | 29990 ft | 540 kts | 89° |
| 2026-05-08 02:30 | 44.81194 | -64.59365 | 29567 ft | 530 kts | 89° |
| 2026-05-08 02:31 | 44.81954 | -64.54276 | 29173 ft | 531 kts | 88° |
| 2026-05-08 02:31 | 44.82719 | -64.49176 | 28783 ft | 534 kts | 88° |
| 2026-05-08 02:31 | 44.83473 | -64.44132 | 28408 ft | 529 kts | 87° |
| 2026-05-08 02:31 | 44.84231 | -64.39085 | 28025 ft | 522 kts | 88° |
| 2026-05-08 02:32 | 44.84978 | -64.34065 | 27657 ft | 517 kts | 88° |
| 2026-05-08 02:32 | 44.85708 | -64.29150 | 27249 ft | 512 kts | 88° |
| 2026-05-08 02:32 | 44.86356 | -64.24218 | 26836 ft | 503 kts | 95° |
| 2026-05-08 02:32 | 44.86270 | -64.19471 | 26217 ft | 481 kts | 111° |
| 2026-05-08 02:33 | 44.85479 | -64.15071 | 25198 ft | 454 kts | 119° |
| 2026-05-08 02:33 | 44.84498 | -64.10613 | 24124 ft | 441 kts | 119° |
| 2026-05-08 02:33 | 44.83519 | -64.06377 | 23051 ft | 432 kts | 120° |
| 2026-05-08 02:33 | 44.82528 | -64.02211 | 21962 ft | 423 kts | 119° |
| 2026-05-08 02:34 | 44.81524 | -63.98064 | 20857 ft | 414 kts | 120° |
| 2026-05-08 02:34 | 44.80555 | -63.94141 | 19800 ft | 407 kts | 120° |
| 2026-05-08 02:34 | 44.79636 | -63.90443 | 18801 ft | 400 kts | 119° |
| 2026-05-08 02:34 | 44.78772 | -63.86776 | 17809 ft | 396 kts | 114° |
| 2026-05-08 02:35 | 44.78025 | -63.83105 | 16859 ft | 389 kts | 115° |
| 2026-05-08 02:35 | 44.77272 | -63.79521 | 15874 ft | 382 kts | 115° |
| 2026-05-08 02:35 | 44.76507 | -63.75980 | 14924 ft | 375 kts | 115° |
| 2026-05-08 02:35 | 44.75724 | -63.72552 | 13945 ft | 370 kts | 114° |
| 2026-05-08 02:36 | 44.74934 | -63.69175 | 13003 ft | 364 kts | 114° |
| 2026-05-08 02:36 | 44.74148 | -63.65857 | 12076 ft | 357 kts | 115° |
| 2026-05-08 02:36 | 44.73013 | -63.62917 | 11135 ft | 334 kts | 140° |
| 2026-05-08 02:36 | 44.71231 | -63.61073 | 10208 ft | 312 kts | 158° |
| 2026-05-08 02:37 | 44.69350 | -63.59614 | 9301 ft | 305 kts | 160° |
| 2026-05-08 02:37 | 44.67393 | -63.58863 | 8403 ft | 291 kts | 175° |
| 2026-05-08 02:37 | 44.65430 | -63.58406 | 7517 ft | 288 kts | 175° |
| 2026-05-08 02:37 | 44.63477 | -63.57973 | 6632 ft | 286 kts | 175° |
| 2026-05-08 02:38 | 44.61527 | -63.57565 | 5753 ft | 284 kts | 172° |
| 2026-05-08 02:38 | 44.59744 | -63.56405 | 4862 ft | 292 kts | 139° |
| 2026-05-08 02:38 | 44.58642 | -63.54050 | 3978 ft | 293 kts | 105° |
| 2026-05-08 02:38 | 44.58585 | -63.51272 | 3119 ft | 287 kts | 71° |
| 2026-05-08 02:39 | 44.59583 | -63.49104 | 2822 ft | 251 kts | 30° |
| 2026-05-08 02:39 | 44.61067 | -63.48446 | 3086 ft | 212 kts | 352° |
| 2026-05-08 02:39 | 44.62421 | -63.49040 | 3052 ft | 200 kts | 324° |
| 2026-05-08 02:39 | 44.63543 | -63.50206 | 3060 ft | 202 kts | 316° |
| 2026-05-08 02:40 | 44.64545 | -63.51574 | 3055 ft | 201 kts | 315° |
| 2026-05-08 02:40 | 44.65551 | -63.52964 | 3074 ft | 203 kts | 315° |
| 2026-05-08 02:40 | 44.66524 | -63.54373 | 3042 ft | 203 kts | 310° |
| 2026-05-08 02:40 | 44.67437 | -63.55881 | 3047 ft | 201 kts | 310° |
| 2026-05-08 02:41 | 44.68354 | -63.57393 | 3040 ft | 201 kts | 309° |
| 2026-05-08 02:41 | 44.69214 | -63.58958 | 3051 ft | 203 kts | 307° |
| 2026-05-08 02:41 | 44.70070 | -63.60537 | 3060 ft | 201 kts | 307° |
| 2026-05-08 02:41 | 44.70915 | -63.62103 | 3075 ft | 204 kts | 307° |
| 2026-05-08 02:42 | 44.71887 | -63.63538 | 3007 ft | 202 kts | 329° |
| 2026-05-08 02:42 | 44.73272 | -63.63955 | 3075 ft | 206 kts | 349° |
| 2026-05-08 02:42 | 44.74698 | -63.64001 | 2948 ft | 211 kts | 11° |
| 2026-05-08 02:42 | 44.75896 | -63.63042 | 2701 ft | 185 kts | 27° |
| 2026-05-08 02:43 | 44.76942 | -63.62078 | 2396 ft | 179 kts | 28° |
| 2026-05-08 02:43 | 44.77975 | -63.61105 | 2097 ft | 179 kts | 28° |
| 2026-05-08 02:43 | 44.79017 | -63.60110 | 1918 ft | 180 kts | 28° |
| 2026-05-08 02:43 | 44.80050 | -63.59114 | 1820 ft | 181 kts | 29° |
| 2026-05-08 02:44 | 44.81079 | -63.58112 | 1753 ft | 181 kts | 29° |
| 2026-05-08 02:44 | 44.82143 | -63.57095 | 1591 ft | 179 kts | 30° |
| 2026-05-08 02:44 | 44.83102 | -63.56105 | 1273 ft | 168 kts | 32° |
| 2026-05-08 02:44 | 44.84018 | -63.55214 | 1134 ft | 153 kts | 31° |
| 2026-05-08 02:45 | 44.84859 | -63.54378 | 947 ft | 143 kts | 31° |
| 2026-05-08 02:45 | 44.85668 | -63.53604 | 717 ft | 138 kts | 31° |
| 2026-05-08 02:45 | 44.86454 | -63.52837 | 507 ft | 132 kts | 32° |
| 2026-05-08 02:45 | 44.87171 | -63.52125 | 467 ft | 114 kts | 33° |
| 2026-05-08 02:46 | 44.87720 | -63.51590 | 462 ft | 79 kts | 34° |
| 2026-05-08 02:46 | 44.88023 | -63.51287 | 456 ft | 30 kts | 35° |
| 2026-05-08 02:46 | 44.88183 | -63.51127 | 457 ft | 28 kts | 34° |
| 2026-05-08 02:46 | 44.88290 | -63.51031 | 459 ft | 10 kts | 9° |
| 2026-05-08 02:47 | 44.88356 | -63.51096 | 457 ft | 15 kts | 303° |
| 2026-05-08 02:47 | 44.88421 | -63.51197 | 454 ft | 12 kts | 347° |
| 2026-05-08 02:47 | 44.88514 | -63.51218 | 453 ft | 14 kts | 352° |
| 2026-05-08 02:47 | 44.88616 | -63.51241 | 453 ft | 12 kts | 347° |
| 2026-05-08 02:48 | 44.88648 | -63.51288 | 453 ft | 7 kts | 277° |
| 2026-05-08 02:48 | 44.88643 | -63.51358 | 452 ft | 6 kts | 260° |
| 2026-05-08 02:48 | 44.88641 | -63.51374 | 451 ft | 0 kts | 260° |